createdAt,value
2018-06-02T00:01:25.521Z,20.94
2018-06-02T00:03:51.333Z,20.81
2018-06-02T00:06:17.163Z,20.70
2018-06-02T00:08:42.963Z,20.74
2018-06-02T00:11:08.809Z,20.70
2018-06-02T00:13:34.581Z,20.67
2018-06-02T00:16:00.384Z,20.78
2018-06-02T00:18:26.202Z,20.74
2018-06-02T00:20:52.005Z,20.58
2018-06-02T00:23:21.613Z,20.58
2018-06-02T00:25:47.418Z,20.76
2018-06-02T00:28:13.209Z,20.69
2018-06-02T00:30:39.011Z,20.53
2018-06-02T00:33:04.807Z,20.58
2018-06-02T00:35:30.600Z,20.76
2018-06-02T00:37:56.394Z,20.76
2018-06-02T00:40:22.211Z,20.48
2018-06-02T00:42:47.994Z,20.40
2018-06-02T00:45:14.184Z,20.36
2018-06-02T00:47:39.989Z,20.29
2018-06-02T00:50:05.790Z,20.20
2018-06-02T00:52:31.595Z,20.17
2018-06-02T00:55:07.421Z,20.14
2018-06-02T00:57:33.238Z,20.11
2018-06-02T00:59:59.017Z,20.08
2018-06-02T01:02:24.801Z,19.97
2018-06-02T01:04:50.593Z,19.98
2018-06-02T01:07:17.341Z,19.96
2018-06-02T01:09:43.146Z,19.84
2018-06-02T01:12:08.950Z,19.81
2018-06-02T01:14:34.741Z,19.74
2018-06-02T01:17:00.561Z,19.71
2018-06-02T01:19:26.358Z,19.55
2018-06-02T01:21:52.159Z,19.35
2018-06-02T01:24:17.976Z,19.40
2018-06-02T01:26:43.753Z,19.43
2018-06-02T01:29:09.536Z,19.45
2018-06-02T01:31:35.316Z,19.53
2018-06-02T01:34:01.109Z,19.54
2018-06-02T01:36:26.916Z,19.46
2018-06-02T01:38:52.693Z,19.36
2018-06-02T01:41:18.465Z,19.35
2018-06-02T01:43:44.473Z,19.51
2018-06-02T01:46:10.274Z,19.52
2018-06-02T01:48:36.097Z,19.52
2018-06-02T01:51:01.898Z,19.54
2018-06-02T01:53:27.685Z,19.55
2018-06-02T01:55:53.494Z,19.50
2018-06-02T01:58:19.281Z,19.47
2018-06-02T02:00:45.071Z,19.37
2018-06-02T02:03:10.884Z,19.47
2018-06-02T02:05:36.715Z,19.49
2018-06-02T02:08:02.509Z,19.49
2018-06-02T02:10:28.306Z,19.46
2018-06-02T02:12:54.126Z,19.38
2018-06-02T02:15:19.921Z,19.32
2018-06-02T02:17:45.721Z,19.34
2018-06-02T02:20:11.588Z,19.27
2018-06-02T02:22:37.409Z,19.17
2018-06-02T02:25:03.178Z,19.10
2018-06-02T02:27:28.998Z,19.21
2018-06-02T02:29:54.786Z,19.38
2018-06-02T02:32:20.575Z,19.30
2018-06-02T02:34:46.724Z,19.39
2018-06-02T02:37:12.564Z,19.28
2018-06-02T02:39:38.362Z,19.37
2018-06-02T02:42:04.163Z,19.38
2018-06-02T02:44:30.233Z,19.45
2018-06-02T02:46:56.035Z,19.41
2018-06-02T02:49:21.818Z,19.48
2018-06-02T02:51:47.614Z,19.37
2018-06-02T02:54:13.406Z,19.40
2018-06-02T02:56:39.194Z,19.41
2018-06-02T02:59:04.997Z,19.52
2018-06-02T03:01:30.777Z,19.56
2018-06-02T03:03:56.561Z,19.54
2018-06-02T03:06:22.384Z,19.59
2018-06-02T03:08:48.186Z,19.63
2018-06-02T03:11:13.971Z,19.66
2018-06-02T03:13:39.790Z,19.70
2018-06-02T03:16:05.574Z,19.68
2018-06-02T03:18:31.357Z,19.72
2018-06-02T03:20:57.177Z,19.77
2018-06-02T03:23:22.961Z,19.74
2018-06-02T03:25:48.773Z,19.78
2018-06-02T03:28:14.551Z,19.73
2018-06-02T03:30:40.357Z,19.77
2018-06-02T03:33:06.140Z,19.77
2018-06-02T03:35:31.925Z,19.79
2018-06-02T03:37:57.724Z,19.82
2018-06-02T03:40:23.523Z,19.86
2018-06-02T03:42:49.315Z,19.87
2018-06-02T03:45:15.117Z,19.87
2018-06-02T03:47:41.008Z,19.86
2018-06-02T03:50:06.793Z,19.81
2018-06-02T03:52:32.618Z,19.80
2018-06-02T03:54:58.395Z,19.79
2018-06-02T03:57:24.164Z,19.81
2018-06-02T03:59:49.953Z,19.87
2018-06-02T04:02:15.792Z,19.78
2018-06-02T04:04:41.630Z,19.73
2018-06-02T04:07:07.423Z,19.70
2018-06-02T04:09:33.229Z,19.73
2018-06-02T04:11:59.021Z,19.76
2018-06-02T04:14:24.827Z,19.81
2018-06-02T04:16:50.657Z,19.74
2018-06-02T04:19:16.442Z,19.75
2018-06-02T04:21:42.238Z,19.79
2018-06-02T04:24:08.041Z,19.83
2018-06-02T04:26:33.861Z,19.76
2018-06-02T04:28:59.634Z,19.78
2018-06-02T04:31:25.430Z,19.74
2018-06-02T04:33:51.239Z,19.83
2018-06-02T04:36:17.028Z,19.80
2018-06-02T04:38:42.800Z,19.77
2018-06-02T04:41:08.598Z,19.77
2018-06-02T04:43:34.381Z,19.84
2018-06-02T04:46:00.176Z,19.83
2018-06-02T04:48:25.958Z,19.74
2018-06-02T04:50:51.782Z,19.75
2018-06-02T04:53:17.597Z,19.82
2018-06-02T04:55:43.391Z,19.85
2018-06-02T04:58:09.178Z,19.86
2018-06-02T05:00:34.970Z,19.80
2018-06-02T05:03:00.757Z,19.82
2018-06-02T05:05:26.588Z,19.86
2018-06-02T05:07:52.374Z,19.80
2018-06-02T05:10:18.221Z,19.79
2018-06-02T05:12:44.004Z,19.75
2018-06-02T05:15:09.843Z,19.70
2018-06-02T05:17:35.627Z,19.71
2018-06-02T05:20:01.412Z,19.76
2018-06-02T05:22:27.245Z,19.73
2018-06-02T05:24:53.032Z,19.61
2018-06-02T05:27:18.809Z,19.42
2018-06-02T05:29:44.600Z,19.54
2018-06-02T05:32:10.388Z,19.41
2018-06-02T05:34:36.166Z,19.43
2018-06-02T05:37:01.987Z,19.44
2018-06-02T05:39:27.771Z,19.43
2018-06-02T05:41:53.553Z,19.41
2018-06-02T05:44:19.385Z,19.43
2018-06-02T05:46:45.174Z,19.39
2018-06-02T05:49:10.956Z,19.40
2018-06-02T05:51:36.745Z,19.34
2018-06-02T05:54:02.576Z,19.28
2018-06-02T05:56:28.368Z,19.28
2018-06-02T05:58:54.165Z,19.09
2018-06-02T06:01:19.997Z,18.97
2018-06-02T06:03:45.780Z,18.97
2018-06-02T06:06:11.568Z,18.83
2018-06-02T06:08:37.381Z,18.79
2018-06-02T06:11:03.169Z,18.82
2018-06-02T06:13:28.950Z,18.76
2018-06-02T06:15:54.773Z,18.68
2018-06-02T06:18:20.588Z,18.63
2018-06-02T06:20:46.382Z,18.64
2018-06-02T06:23:12.193Z,18.70
2018-06-02T06:25:37.985Z,18.61
2018-06-02T06:28:03.861Z,18.72
2018-06-02T06:30:29.665Z,18.66
2018-06-02T06:32:55.446Z,18.72
2018-06-02T06:35:21.268Z,18.76
2018-06-02T06:37:47.065Z,18.62
2018-06-02T06:40:12.864Z,18.70
2018-06-02T06:42:38.660Z,18.70
2018-06-02T06:45:04.465Z,18.73
2018-06-02T06:47:30.261Z,18.52
2018-06-02T06:49:56.059Z,18.34
2018-06-02T06:52:21.840Z,18.34
2018-06-02T06:54:47.660Z,18.35
2018-06-02T06:57:13.448Z,18.30
2018-06-02T06:59:39.255Z,18.34
2018-06-02T07:02:05.075Z,18.31
2018-06-02T07:04:30.885Z,18.24
2018-06-02T07:06:56.673Z,18.29
2018-06-02T07:09:22.468Z,18.28
2018-06-02T07:11:48.336Z,18.27
2018-06-02T07:14:14.055Z,18.30
2018-06-02T07:16:39.868Z,18.33
2018-06-02T07:19:05.671Z,18.31
2018-06-02T07:21:31.466Z,18.30
2018-06-02T07:23:57.249Z,18.25
2018-06-02T07:26:23.062Z,18.23
2018-06-02T07:28:48.837Z,18.33
2018-06-02T07:31:14.630Z,18.32
2018-06-02T07:33:40.441Z,18.40
2018-06-02T07:36:06.316Z,18.41
2018-06-02T07:38:32.120Z,18.40
2018-06-02T07:40:57.899Z,18.44
2018-06-02T07:43:23.700Z,18.41
2018-06-02T07:45:49.492Z,18.38
2018-06-02T07:48:15.281Z,18.38
2018-06-02T07:50:41.105Z,18.39
2018-06-02T07:53:06.918Z,18.35
2018-06-02T07:55:32.700Z,18.31
2018-06-02T07:57:58.513Z,18.30
2018-06-02T08:00:24.305Z,18.24
2018-06-02T08:02:50.121Z,18.27
2018-06-02T08:05:15.946Z,18.34
2018-06-02T08:07:41.747Z,18.32
2018-06-02T08:10:07.561Z,18.32
2018-06-02T08:12:33.341Z,18.23
2018-06-02T08:14:59.144Z,18.19
2018-06-02T08:17:24.950Z,18.29
2018-06-02T08:19:50.738Z,18.30
2018-06-02T08:22:16.533Z,18.35
2018-06-02T08:24:42.321Z,18.29
2018-06-02T08:27:08.113Z,18.28
2018-06-02T08:29:33.914Z,18.29
2018-06-02T08:31:59.702Z,18.37
2018-06-02T08:34:25.502Z,18.34
2018-06-02T08:36:51.309Z,18.31
2018-06-02T08:39:17.100Z,18.32
2018-06-02T08:41:42.908Z,18.31
2018-06-02T08:44:08.977Z,18.33
2018-06-02T08:46:34.761Z,18.37
2018-06-02T08:49:00.557Z,18.47
2018-06-02T08:51:26.359Z,18.54
2018-06-02T08:53:52.345Z,18.52
2018-06-02T08:56:18.164Z,18.76
2018-06-02T08:58:43.932Z,18.62
2018-06-02T09:01:09.723Z,18.49
2018-06-02T09:03:35.513Z,18.51
2018-06-02T09:06:01.339Z,18.69
2018-06-02T09:08:27.129Z,18.69
2018-06-02T09:10:52.942Z,18.80
2018-06-02T09:13:18.732Z,18.61
2018-06-02T09:15:44.556Z,18.95
2018-06-02T09:18:10.335Z,18.85
2018-06-02T09:20:36.145Z,18.80
2018-06-02T09:23:01.934Z,18.94
2018-06-02T09:25:27.733Z,18.93
2018-06-02T09:27:53.597Z,18.94
2018-06-02T09:30:19.326Z,18.84
2018-06-02T09:32:45.116Z,18.82
2018-06-02T09:35:11.052Z,18.84
2018-06-02T09:37:36.804Z,18.85
2018-06-02T09:40:02.613Z,18.79
2018-06-02T09:42:28.405Z,18.85
2018-06-02T09:44:54.305Z,18.94
2018-06-02T09:47:20.102Z,18.95
2018-06-02T09:49:45.892Z,18.90
2018-06-02T09:52:11.705Z,18.88
2018-06-02T09:54:37.480Z,18.92
2018-06-02T09:57:03.273Z,18.92
2018-06-02T09:59:29.066Z,18.83
2018-06-02T10:01:54.876Z,18.84
2018-06-02T10:04:20.678Z,19.05
2018-06-02T10:06:46.473Z,18.98
2018-06-02T10:09:13.304Z,18.99
2018-06-02T10:11:39.284Z,19.10
2018-06-02T10:14:05.088Z,19.11
2018-06-02T10:16:30.871Z,19.09
2018-06-02T10:18:56.948Z,19.24
2018-06-02T10:21:22.737Z,19.20
2018-06-02T10:23:48.525Z,19.16
2018-06-02T10:26:14.350Z,19.23
2018-06-02T10:28:40.137Z,19.20
2018-06-02T10:31:05.957Z,19.28
2018-06-02T10:33:31.979Z,19.21
2018-06-02T10:35:57.780Z,19.15
2018-06-02T10:38:23.567Z,19.16
2018-06-02T10:40:49.386Z,19.04
2018-06-02T10:43:15.177Z,18.96
2018-06-02T10:45:40.985Z,18.96
2018-06-02T10:48:07.213Z,18.99
2018-06-02T10:50:33.005Z,18.89
2018-06-02T10:52:58.809Z,18.93
2018-06-02T10:55:24.694Z,18.92
2018-06-02T10:57:50.487Z,18.95
2018-06-02T11:00:16.274Z,19.05
2018-06-02T11:02:42.056Z,18.95
2018-06-02T11:05:07.878Z,18.95
2018-06-02T11:07:33.667Z,18.96
2018-06-02T11:09:59.474Z,19.02
2018-06-02T11:12:25.264Z,19.19
2018-06-02T11:14:51.090Z,19.35
2018-06-02T11:17:16.874Z,19.52
2018-06-02T11:19:42.665Z,19.54
2018-06-02T11:22:08.462Z,19.53
2018-06-02T11:24:34.248Z,19.69
2018-06-02T11:27:00.020Z,19.81
2018-06-02T11:29:25.834Z,19.99
2018-06-02T11:31:51.717Z,19.98
2018-06-02T11:34:17.522Z,19.97
2018-06-02T11:36:43.324Z,19.90
2018-06-02T11:39:09.128Z,19.79
2018-06-02T11:41:34.928Z,19.76
2018-06-02T11:44:00.770Z,19.75
2018-06-02T11:46:26.529Z,19.78
2018-06-02T11:48:52.326Z,19.66
2018-06-02T11:51:18.119Z,19.70
2018-06-02T11:53:44.014Z,19.70
2018-06-02T11:56:09.812Z,19.47
2018-06-02T11:58:35.609Z,19.44
2018-06-02T12:01:01.502Z,19.53
2018-06-02T12:03:27.265Z,19.44
2018-06-02T12:05:53.057Z,19.37
2018-06-02T12:08:18.997Z,19.44
2018-06-02T12:10:44.775Z,19.57
2018-06-02T12:13:10.565Z,19.45
2018-06-02T12:15:36.392Z,19.27
2018-06-02T12:18:02.177Z,19.24
2018-06-02T12:20:27.969Z,19.27
2018-06-02T12:22:53.789Z,19.36
2018-06-02T12:25:19.572Z,19.22
2018-06-02T12:27:45.368Z,19.13
2018-06-02T12:30:11.183Z,19.12
2018-06-02T12:32:36.956Z,19.09
2018-06-02T12:35:02.763Z,19.14
2018-06-02T12:37:28.560Z,19.00
2018-06-02T12:39:54.365Z,18.99
2018-06-02T12:42:20.158Z,19.04
2018-06-02T12:44:45.973Z,19.07
2018-06-02T12:47:11.763Z,19.10
2018-06-02T12:49:37.567Z,19.20
2018-06-02T12:52:03.376Z,19.27
2018-06-02T12:54:29.166Z,19.42
2018-06-02T12:56:54.969Z,19.43
2018-06-02T12:59:20.776Z,19.37
2018-06-02T13:01:46.556Z,19.33
2018-06-02T13:04:12.340Z,19.38
2018-06-02T13:06:38.215Z,19.31
2018-06-02T13:09:03.977Z,19.30
2018-06-02T13:11:29.797Z,19.19
2018-06-02T13:13:55.629Z,19.34
2018-06-02T13:16:21.424Z,19.28
2018-06-02T13:18:47.213Z,19.35
2018-06-02T13:21:13.062Z,19.37
2018-06-02T13:23:38.844Z,19.39
2018-06-02T13:26:04.629Z,19.47
2018-06-02T13:28:30.420Z,19.48
2018-06-02T13:30:56.238Z,19.53
2018-06-02T13:33:22.027Z,19.53
2018-06-02T13:35:47.832Z,19.49
2018-06-02T13:38:13.616Z,19.59
2018-06-02T13:40:39.400Z,19.57
2018-06-02T13:43:05.255Z,19.41
2018-06-02T13:45:30.997Z,19.43
2018-06-02T13:47:57.034Z,19.53
2018-06-02T13:50:22.833Z,19.56
2018-06-02T13:52:48.671Z,19.64
2018-06-02T13:55:14.478Z,19.80
2018-06-02T13:57:40.265Z,19.76
2018-06-02T14:00:06.081Z,19.73
2018-06-02T14:02:31.870Z,19.90
2018-06-02T14:04:57.661Z,19.98
2018-06-02T14:07:23.446Z,19.95
2018-06-02T14:09:49.249Z,20.02
2018-06-02T14:12:15.050Z,20.01
2018-06-02T14:14:40.852Z,20.11
2018-06-02T14:17:06.665Z,19.97
2018-06-02T14:19:32.493Z,19.94
2018-06-02T14:21:58.322Z,19.88
2018-06-02T14:24:24.089Z,19.92
2018-06-02T14:26:49.906Z,19.90
2018-06-02T14:29:15.685Z,19.99
2018-06-02T14:31:41.469Z,20.24
2018-06-02T14:34:07.304Z,20.27
2018-06-02T14:36:33.090Z,20.12
2018-06-02T14:38:58.899Z,20.05
2018-06-02T14:41:24.722Z,20.11
2018-06-02T14:43:50.525Z,20.27
2018-06-02T14:46:16.347Z,20.25
2018-06-02T14:48:42.135Z,20.30
2018-06-02T14:51:07.945Z,20.24
2018-06-02T14:53:33.750Z,20.19
2018-06-02T14:55:59.544Z,20.21
2018-06-02T14:58:25.366Z,20.08
2018-06-02T15:00:51.145Z,19.96
2018-06-02T15:03:16.943Z,19.87
2018-06-02T15:05:43.015Z,19.87
2018-06-02T15:08:08.853Z,19.88
2018-06-02T15:10:34.636Z,19.91
2018-06-02T15:13:00.460Z,19.95
2018-06-02T15:15:26.239Z,19.87
2018-06-02T15:17:52.086Z,19.81
2018-06-02T15:20:17.895Z,19.79
2018-06-02T15:22:43.695Z,19.75
2018-06-02T15:25:09.494Z,19.69
2018-06-02T15:27:35.274Z,19.71
2018-06-02T15:30:01.058Z,19.74
2018-06-02T15:32:26.865Z,19.78
2018-06-02T15:34:52.658Z,19.85
2018-06-02T15:37:18.470Z,19.89
2018-06-02T15:39:44.281Z,19.92
2018-06-02T15:42:10.067Z,20.00
2018-06-02T15:44:35.865Z,20.02
2018-06-02T15:47:01.712Z,20.08
2018-06-02T15:49:27.500Z,20.09
2018-06-02T15:51:53.301Z,19.87
2018-06-02T15:54:19.116Z,19.79
2018-06-02T15:56:44.920Z,19.81
2018-06-02T15:59:11.755Z,19.75
2018-06-02T16:01:38.813Z,19.58
2018-06-02T16:04:11.276Z,19.62
2018-06-02T16:06:37.643Z,19.62
2018-06-02T16:09:04.345Z,19.65
2018-06-02T16:11:30.144Z,19.70
2018-06-02T16:13:55.965Z,19.77
2018-06-02T16:16:21.749Z,19.76
2018-06-02T16:18:47.537Z,19.93
2018-06-02T16:21:13.343Z,19.84
2018-06-02T16:23:39.176Z,19.71
2018-06-02T16:26:04.950Z,19.56
2018-06-02T16:28:33.104Z,19.42
2018-06-02T16:30:59.437Z,19.48
2018-06-02T16:33:25.244Z,19.56
2018-06-02T16:35:51.066Z,19.51
2018-06-02T16:38:16.844Z,19.50
2018-06-02T16:40:42.621Z,19.50
2018-06-02T16:43:08.436Z,19.57
2018-06-02T16:45:34.220Z,19.70
2018-06-02T16:48:00.015Z,19.67
2018-06-02T16:50:25.848Z,19.56
2018-06-02T16:52:51.637Z,19.59
2018-06-02T16:55:17.469Z,19.59
2018-06-02T16:57:43.261Z,19.52
2018-06-02T17:00:09.069Z,19.46
2018-06-02T17:02:34.854Z,19.39
2018-06-02T17:05:00.746Z,19.36
2018-06-02T17:07:26.549Z,19.33
2018-06-02T17:09:52.332Z,19.32
2018-06-02T17:12:18.152Z,19.36
2018-06-02T17:14:43.920Z,19.32
2018-06-02T17:17:09.707Z,19.30
2018-06-02T17:19:35.498Z,19.26
2018-06-02T17:22:01.293Z,19.34
2018-06-02T17:24:27.094Z,19.25
2018-06-02T17:26:52.897Z,19.13
2018-06-02T17:29:18.706Z,19.15
2018-06-02T17:31:44.498Z,19.19
2018-06-02T17:34:10.306Z,19.19
2018-06-02T17:36:36.100Z,19.16
2018-06-02T17:39:01.925Z,19.03
2018-06-02T17:41:27.768Z,19.01
2018-06-02T17:43:53.544Z,18.84
2018-06-02T17:46:19.338Z,18.71
2018-06-02T17:48:45.150Z,18.60
2018-06-02T17:51:10.924Z,18.45
2018-06-02T17:53:36.713Z,18.44
2018-06-02T17:56:02.558Z,18.36
2018-06-02T17:58:28.349Z,18.38
2018-06-02T18:00:54.150Z,18.37
2018-06-02T18:03:19.960Z,18.24
2018-06-02T18:05:45.828Z,18.23
2018-06-02T18:08:11.642Z,18.18
2018-06-02T18:10:37.457Z,18.23
2018-06-02T18:13:03.261Z,18.19
2018-06-02T18:15:29.050Z,18.30
2018-06-02T18:17:54.884Z,18.24
2018-06-02T18:20:20.667Z,18.20
2018-06-02T18:22:46.462Z,18.19
2018-06-02T18:25:12.256Z,18.24
2018-06-02T18:27:38.050Z,18.27
2018-06-02T18:30:03.954Z,18.25
2018-06-02T18:32:29.733Z,18.29
2018-06-02T18:34:55.529Z,18.22
2018-06-02T18:37:21.341Z,18.22
2018-06-02T18:39:47.130Z,18.22
2018-06-02T18:42:12.928Z,18.18
2018-06-02T18:44:38.745Z,18.16
2018-06-02T18:47:04.533Z,18.31
2018-06-02T18:49:30.325Z,18.27
2018-06-02T18:51:56.165Z,18.24
2018-06-02T18:54:21.951Z,18.21
2018-06-02T18:56:47.738Z,18.25
2018-06-02T18:59:13.542Z,18.22
2018-06-02T19:01:39.337Z,18.18
2018-06-02T19:04:05.122Z,18.21
2018-06-02T19:06:30.909Z,18.16
2018-06-02T19:08:56.705Z,18.17
2018-06-02T19:11:22.523Z,18.11
2018-06-02T19:13:48.318Z,18.13
2018-06-02T19:16:14.105Z,18.06
2018-06-02T19:18:40.218Z,18.01
2018-06-02T19:21:05.998Z,18.00
2018-06-02T19:23:31.793Z,18.00
2018-06-02T19:25:57.595Z,17.93
2018-06-02T19:28:23.381Z,17.91
2018-06-02T19:30:49.193Z,17.92
2018-06-02T19:33:15.216Z,18.01
2018-06-02T19:35:41.008Z,17.93
2018-06-02T19:38:06.789Z,17.90
2018-06-02T19:40:32.597Z,17.86
2018-06-02T19:42:58.457Z,17.85
2018-06-02T19:45:24.249Z,17.83
2018-06-02T19:47:50.180Z,17.76
2018-06-02T19:50:15.977Z,17.82
2018-06-02T19:52:41.771Z,17.82
2018-06-02T19:55:07.585Z,17.76
2018-06-02T19:57:33.373Z,17.76
2018-06-02T19:59:59.170Z,17.74
2018-06-02T20:02:24.961Z,17.74
2018-06-02T20:04:50.950Z,17.76
2018-06-02T20:07:16.764Z,17.78
2018-06-02T20:09:42.546Z,17.79
2018-06-02T20:12:08.346Z,17.79
2018-06-02T20:14:34.144Z,17.77
2018-06-02T20:16:59.955Z,17.79
2018-06-02T20:19:25.745Z,17.76
2018-06-02T20:21:51.549Z,17.78
2018-06-02T20:24:17.350Z,17.76
2018-06-02T20:26:43.149Z,17.75
2018-06-02T20:29:08.968Z,17.76
2018-06-02T20:31:34.756Z,17.72
2018-06-02T20:34:00.557Z,17.72
2018-06-02T20:36:33.458Z,17.73
2018-06-02T20:38:59.252Z,17.75
2018-06-02T20:41:25.109Z,17.71
2018-06-02T20:43:50.938Z,17.73
2018-06-02T20:46:16.734Z,17.73
2018-06-02T20:48:42.532Z,17.68
2018-06-02T20:51:08.320Z,17.75
2018-06-02T20:53:34.118Z,17.66
2018-06-02T20:55:59.911Z,17.65
2018-06-02T20:58:25.821Z,17.69
2018-06-02T21:00:51.625Z,17.79
2018-06-02T21:03:17.425Z,17.68
2018-06-02T21:05:43.226Z,17.71
2018-06-02T21:08:09.004Z,17.65
2018-06-02T21:10:34.794Z,17.65
2018-06-02T21:13:00.742Z,17.66
2018-06-02T21:15:26.534Z,17.66
2018-06-02T21:17:52.318Z,17.62
2018-06-02T21:20:18.117Z,17.64
2018-06-02T21:22:43.907Z,17.63
2018-06-02T21:25:09.739Z,17.61
2018-06-02T21:28:07.098Z,17.33
2018-06-02T21:30:34.134Z,17.27
2018-06-02T21:33:01.141Z,17.29
2018-06-02T21:35:28.157Z,17.29
2018-06-02T21:37:55.193Z,17.23
2018-06-02T21:40:22.213Z,17.26
2018-06-02T21:42:49.224Z,17.22
2018-06-02T21:45:16.325Z,17.28
2018-06-02T21:47:43.357Z,17.25
2018-06-02T21:50:10.369Z,17.17
2018-06-02T21:52:37.382Z,17.11
2018-06-02T21:55:04.413Z,17.10
2018-06-02T21:57:31.426Z,17.10
2018-06-02T21:59:58.474Z,17.16
2018-06-02T22:02:25.481Z,17.10
2018-06-02T22:04:52.508Z,17.11
2018-06-02T22:07:19.579Z,17.17
2018-06-02T22:09:46.634Z,17.10
2018-06-02T22:12:13.691Z,17.05
2018-06-02T22:14:40.766Z,17.06
2018-06-02T22:17:07.809Z,17.06
2018-06-02T22:19:34.817Z,17.07
2018-06-02T22:22:01.841Z,17.08
2018-06-02T22:24:28.835Z,17.06
2018-06-02T22:26:55.847Z,17.03
2018-06-02T22:29:23.068Z,17.06
2018-06-02T22:31:50.080Z,17.00
2018-06-02T22:34:17.078Z,17.01
2018-06-02T22:36:44.185Z,17.11
2018-06-02T22:39:11.231Z,17.10
2018-06-02T22:41:38.265Z,17.03
2018-06-02T22:44:05.313Z,17.00
2018-06-02T22:46:32.390Z,17.05
2018-06-02T22:48:59.401Z,17.03
2018-06-02T22:52:03.578Z,17.02
2018-06-02T22:54:30.677Z,17.03
2018-06-02T22:56:57.777Z,17.04
2018-06-02T22:59:24.860Z,17.00
2018-06-02T23:01:51.937Z,17.00
2018-06-02T23:04:18.983Z,17.01
2018-06-02T23:06:46.039Z,16.98
2018-06-02T23:09:13.051Z,16.98
2018-06-02T23:11:40.068Z,16.97
2018-06-02T23:14:07.303Z,17.03
2018-06-02T23:16:34.315Z,17.03
2018-06-02T23:19:01.321Z,17.02
2018-06-02T23:21:28.749Z,17.14
2018-06-02T23:23:55.769Z,17.05
2018-06-02T23:26:22.769Z,17.00
2018-06-02T23:28:49.798Z,17.01
2018-06-02T23:31:16.818Z,17.02
2018-06-02T23:33:43.860Z,17.02
2018-06-02T23:36:10.870Z,17.09
2018-06-02T23:38:37.908Z,17.09
2018-06-02T23:41:04.941Z,17.00
2018-06-02T23:43:31.939Z,16.96
2018-06-02T23:45:58.977Z,16.96
2018-06-02T23:48:25.993Z,16.98
2018-06-02T23:50:53.002Z,16.98
2018-06-02T23:53:20.074Z,16.97
2018-06-02T23:55:47.089Z,16.94
2018-06-02T23:58:14.093Z,16.94
